createdAt,value
2018-06-17T00:00:25.898Z,1006.7
2018-06-17T00:01:28.013Z,1006.7
2018-06-17T00:02:29.778Z,1006.7
2018-06-17T00:03:31.912Z,1006.7
2018-06-17T00:04:33.664Z,1006.7
2018-06-17T00:05:35.811Z,1006.7
2018-06-17T00:06:37.793Z,1006.7
2018-06-17T00:07:39.549Z,1006.7
2018-06-17T00:08:41.286Z,1006.7
2018-06-17T00:09:43.154Z,1006.7
2018-06-17T00:10:44.837Z,1006.7
2018-06-17T00:11:46.730Z,1006.7
2018-06-17T00:12:48.688Z,1006.7
2018-06-17T00:13:50.816Z,1006.7
2018-06-17T00:14:52.917Z,1006.7
2018-06-17T00:15:54.667Z,1006.7
2018-06-17T00:16:56.812Z,1006.7
2018-06-17T00:17:58.651Z,1006.8
2018-06-17T00:19:00.834Z,1006.8
2018-06-17T00:20:02.987Z,1006.8
2018-06-17T00:21:04.755Z,1006.8
2018-06-17T00:22:06.535Z,1006.8
2018-06-17T00:23:08.461Z,1006.8
2018-06-17T00:24:10.203Z,1006.8
2018-06-17T00:25:11.976Z,1006.8
2018-06-17T00:26:13.735Z,1006.8
2018-06-17T00:27:15.676Z,1006.8
2018-06-17T00:28:17.588Z,1006.8
2018-06-17T00:29:19.498Z,1006.8
2018-06-17T00:30:21.486Z,1006.8
2018-06-17T00:31:23.662Z,1006.8
2018-06-17T00:32:25.567Z,1006.9
2018-06-17T00:33:27.534Z,1006.8
2018-06-17T00:34:29.312Z,1006.9
2018-06-17T00:35:31.100Z,1006.9
2018-06-17T00:36:33.162Z,1006.9
2018-06-17T00:37:35.108Z,1006.8
2018-06-17T00:38:37.245Z,1006.8
2018-06-17T00:39:39.055Z,1006.9
2018-06-17T00:40:41.039Z,1006.8
2018-06-17T00:41:43.317Z,1006.8
2018-06-17T00:42:45.204Z,1006.8
2018-06-17T00:43:47.089Z,1006.9
2018-06-17T00:44:48.994Z,1006.9
2018-06-17T00:45:51.086Z,1006.8
2018-06-17T00:46:53.010Z,1006.9
2018-06-17T00:47:54.970Z,1006.9
2018-06-17T00:48:56.726Z,1006.8
2018-06-17T00:49:58.475Z,1006.8
2018-06-17T00:51:00.651Z,1006.9
2018-06-17T00:52:02.395Z,1006.9
2018-06-17T00:53:04.289Z,1006.9
2018-06-17T00:54:06.446Z,1006.9
2018-06-17T00:55:08.450Z,1006.9
2018-06-17T00:56:10.767Z,1006.9
2018-06-17T00:57:12.491Z,1006.9
2018-06-17T00:58:14.774Z,1006.9
2018-06-17T00:59:16.651Z,1006.9
2018-06-17T01:00:18.609Z,1006.9
2018-06-17T01:01:20.592Z,1006.9
2018-06-17T01:02:22.651Z,1006.9
2018-06-17T01:03:24.822Z,1006.9
2018-06-17T01:04:26.883Z,1006.9
2018-06-17T01:05:28.663Z,1006.8
2018-06-17T01:06:30.852Z,1006.9
2018-06-17T01:07:32.949Z,1006.8
2018-06-17T01:08:34.849Z,1006.9
2018-06-17T01:09:36.688Z,1006.9
2018-06-17T01:10:38.400Z,1006.9
2018-06-17T01:11:40.628Z,1006.9
2018-06-17T01:12:42.947Z,1006.9
2018-06-17T01:13:44.883Z,1006.9
2018-06-17T01:14:47.236Z,1006.9
2018-06-17T01:15:49.094Z,1006.9
2018-06-17T01:16:50.769Z,1006.9
2018-06-17T01:17:52.539Z,1006.8
2018-06-17T01:18:54.318Z,1006.9
2018-06-17T01:19:56.266Z,1006.8
2018-06-17T01:20:58.535Z,1006.8
2018-06-17T01:22:01.331Z,1006.8
2018-06-17T01:23:03.058Z,1006.9
2018-06-17T01:24:04.865Z,1006.8
2018-06-17T01:25:06.555Z,1006.9
2018-06-17T01:26:08.479Z,1006.9
2018-06-17T01:27:10.306Z,1006.9
2018-06-17T01:28:11.993Z,1006.9
2018-06-17T01:29:14.213Z,1006.9
2018-06-17T01:30:15.951Z,1006.9
2018-06-17T01:31:17.906Z,1006.9
2018-06-17T01:32:19.814Z,1006.9
2018-06-17T01:33:22.020Z,1006.9
2018-06-17T01:34:23.961Z,1007.0
2018-06-17T01:35:25.918Z,1006.9
2018-06-17T01:36:28.163Z,1006.9
2018-06-17T01:37:30.151Z,1006.9
2018-06-17T01:38:32.195Z,1006.9
2018-06-17T01:39:33.904Z,1007.0
2018-06-17T01:40:35.702Z,1007.0
2018-06-17T01:41:37.473Z,1007.0
2018-06-17T01:42:39.454Z,1007.0
2018-06-17T01:43:41.369Z,1007.0
2018-06-17T01:44:43.136Z,1007.0
2018-06-17T01:45:45.269Z,1007.0
2018-06-17T01:46:47.517Z,1007.0
2018-06-17T01:47:49.274Z,1007.0
2018-06-17T01:48:51.295Z,1007.0
2018-06-17T01:49:53.340Z,1007.0
2018-06-17T01:50:54.995Z,1007.0
2018-06-17T01:51:57.032Z,1007.1
2018-06-17T01:52:58.702Z,1007.0
2018-06-17T01:54:00.413Z,1007.0
2018-06-17T01:55:02.733Z,1007.0
2018-06-17T01:56:04.560Z,1007.0
2018-06-17T01:57:06.783Z,1007.0
2018-06-17T01:58:08.759Z,1007.0
2018-06-17T01:59:10.761Z,1007.0
2018-06-17T02:00:12.727Z,1007.0
2018-06-17T02:01:14.692Z,1007.1
2018-06-17T02:02:16.628Z,1007.0
2018-06-17T02:03:18.868Z,1007.0
2018-06-17T02:04:21.288Z,1007.0
2018-06-17T02:05:23.120Z,1007.0
2018-06-17T02:06:25.092Z,1007.0
2018-06-17T02:07:26.786Z,1007.0
2018-06-17T02:08:28.519Z,1007.0
2018-06-17T02:09:30.507Z,1007.0
2018-06-17T02:10:32.527Z,1007.0
2018-06-17T02:11:34.458Z,1007.0
2018-06-17T02:12:36.559Z,1007.1
2018-06-17T02:13:38.618Z,1007.1
2018-06-17T02:14:40.387Z,1007.1
2018-06-17T02:15:42.184Z,1007.1
2018-06-17T02:16:44.186Z,1007.1
2018-06-17T02:17:45.881Z,1007.1
2018-06-17T02:18:48.201Z,1007.1
2018-06-17T02:19:50.426Z,1007.1
2018-06-17T02:20:52.315Z,1007.1
2018-06-17T02:21:54.310Z,1007.2
2018-06-17T02:22:56.123Z,1007.1
2018-06-17T02:23:58.046Z,1007.1
2018-06-17T02:24:59.769Z,1007.0
2018-06-17T02:26:02.054Z,1007.0
2018-06-17T02:27:03.857Z,1007.0
2018-06-17T02:28:06.188Z,1007.0
2018-06-17T02:29:08.097Z,1006.9
2018-06-17T02:30:10.165Z,1007.0
2018-06-17T02:31:12.266Z,1007.0
2018-06-17T02:32:14.288Z,1007.0
2018-06-17T02:33:15.992Z,1007.0
2018-06-17T02:34:18.338Z,1007.0
2018-06-17T02:35:20.461Z,1007.0
2018-06-17T02:36:22.163Z,1007.0
2018-06-17T02:37:24.142Z,1007.1
2018-06-17T02:38:26.270Z,1007.1
2018-06-17T02:39:28.403Z,1007.1
2018-06-17T02:40:30.637Z,1007.1
2018-06-17T02:41:32.674Z,1007.1
2018-06-17T02:42:34.532Z,1007.1
2018-06-17T02:43:36.825Z,1007.0
2018-06-17T02:44:39.079Z,1007.1
2018-06-17T02:45:40.884Z,1007.2
2018-06-17T02:46:42.658Z,1007.1
2018-06-17T02:47:44.645Z,1007.1
2018-06-17T02:48:46.529Z,1007.1
2018-06-17T02:49:48.166Z,1007.2
2018-06-17T02:50:50.267Z,1007.2
2018-06-17T02:51:52.492Z,1007.2
2018-06-17T02:52:54.708Z,1007.2
2018-06-17T02:53:56.489Z,1007.2
2018-06-17T02:54:58.468Z,1007.2
2018-06-17T02:56:00.387Z,1007.2
2018-06-17T02:57:02.371Z,1007.3
2018-06-17T02:58:04.388Z,1007.2
2018-06-17T02:59:06.400Z,1007.2
2018-06-17T03:00:08.397Z,1007.2
2018-06-17T03:01:10.625Z,1007.2
2018-06-17T03:02:12.688Z,1007.2
2018-06-17T03:03:14.672Z,1007.2
2018-06-17T03:04:16.451Z,1007.2
2018-06-17T03:05:18.346Z,1007.3
2018-06-17T03:06:20.623Z,1007.2
2018-06-17T03:07:22.828Z,1007.2
2018-06-17T03:08:24.727Z,1007.2
2018-06-17T03:09:26.965Z,1007.2
2018-06-17T03:10:28.647Z,1007.2
2018-06-17T03:11:30.456Z,1007.2
2018-06-17T03:12:32.430Z,1007.2
2018-06-17T03:13:34.541Z,1007.2
2018-06-17T03:14:36.267Z,1007.2
2018-06-17T03:15:38.228Z,1007.2
2018-06-17T03:16:39.974Z,1007.1
2018-06-17T03:17:41.828Z,1007.2
2018-06-17T03:18:44.003Z,1007.2
2018-06-17T03:19:45.912Z,1007.2
2018-06-17T03:20:47.872Z,1007.2
2018-06-17T03:21:50.020Z,1007.2
2018-06-17T03:22:51.981Z,1007.2
2018-06-17T03:23:53.965Z,1007.2
2018-06-17T03:24:55.717Z,1007.2
2018-06-17T03:25:57.546Z,1007.2
2018-06-17T03:26:59.798Z,1007.2
2018-06-17T03:28:01.746Z,1007.2
2018-06-17T03:29:03.689Z,1007.2
2018-06-17T03:30:05.469Z,1007.1
2018-06-17T03:31:07.502Z,1007.1
2018-06-17T03:32:09.377Z,1007.1
2018-06-17T03:33:11.534Z,1007.1
2018-06-17T03:34:13.261Z,1007.1
2018-06-17T03:35:15.245Z,1007.2
2018-06-17T03:36:17.304Z,1007.1
2018-06-17T03:37:19.317Z,1007.2
2018-06-17T03:38:21.435Z,1007.2
2018-06-17T03:39:23.446Z,1007.1
2018-06-17T03:40:25.273Z,1007.2
2018-06-17T03:41:27.017Z,1007.2
2018-06-17T03:42:29.263Z,1007.2
2018-06-17T03:43:31.193Z,1007.2
2018-06-17T03:44:32.900Z,1007.2
2018-06-17T03:45:34.741Z,1007.2
2018-06-17T03:46:36.550Z,1007.2
2018-06-17T03:47:38.426Z,1007.3
2018-06-17T03:48:40.552Z,1007.2
2018-06-17T03:49:42.346Z,1007.2
2018-06-17T03:50:44.077Z,1007.2
2018-06-17T03:51:45.796Z,1007.3
2018-06-17T03:52:47.893Z,1007.3
2018-06-17T03:53:49.968Z,1007.2
2018-06-17T03:54:52.115Z,1007.2
2018-06-17T03:55:54.190Z,1007.2
2018-06-17T03:56:56.240Z,1007.3
2018-06-17T03:57:58.438Z,1007.2
2018-06-17T03:59:00.185Z,1007.2
2018-06-17T04:00:02.086Z,1007.3
2018-06-17T04:01:03.845Z,1007.3
2018-06-17T04:02:07.744Z,1007.3
2018-06-17T04:03:09.779Z,1007.3
2018-06-17T04:04:11.944Z,1007.3
2018-06-17T04:05:13.926Z,1007.3
2018-06-17T04:06:15.913Z,1007.3
2018-06-17T04:07:18.050Z,1007.3
2018-06-17T04:08:20.086Z,1007.3
2018-06-17T04:09:21.887Z,1007.4
2018-06-17T04:10:23.982Z,1007.4
2018-06-17T04:11:25.669Z,1007.4
2018-06-17T04:12:27.434Z,1007.4
2018-06-17T04:13:29.405Z,1007.4
2018-06-17T04:14:31.475Z,1007.4
2018-06-17T04:15:33.615Z,1007.4
2018-06-17T04:16:35.713Z,1007.4
2018-06-17T04:17:37.631Z,1007.4
2018-06-17T04:18:39.628Z,1007.4
2018-06-17T04:19:41.573Z,1007.4
2018-06-17T04:20:43.322Z,1007.5
2018-06-17T04:21:45.279Z,1007.5
2018-06-17T04:22:47.280Z,1007.5
2018-06-17T04:23:49.192Z,1007.5
2018-06-17T04:24:51.217Z,1007.5
2018-06-17T04:25:53.396Z,1007.5
2018-06-17T04:26:55.170Z,1007.5
2018-06-17T04:27:57.136Z,1007.5
2018-06-17T04:28:59.274Z,1007.5
2018-06-17T04:30:01.217Z,1007.4
2018-06-17T04:31:02.969Z,1007.5
2018-06-17T04:32:05.259Z,1007.5
2018-06-17T04:33:07.536Z,1007.5
2018-06-17T04:34:09.591Z,1007.5
2018-06-17T04:35:11.928Z,1007.5
2018-06-17T04:36:13.704Z,1007.5
2018-06-17T04:37:15.852Z,1007.5
2018-06-17T04:38:17.522Z,1007.5
2018-06-17T04:39:19.485Z,1007.5
2018-06-17T04:40:21.559Z,1007.5
2018-06-17T04:41:23.514Z,1007.5
2018-06-17T04:42:25.295Z,1007.5
2018-06-17T04:43:27.522Z,1007.5
2018-06-17T04:44:29.560Z,1007.5
2018-06-17T04:45:31.388Z,1007.5
2018-06-17T04:46:33.580Z,1007.6
2018-06-17T04:47:35.497Z,1007.5
2018-06-17T04:48:37.606Z,1007.6
2018-06-17T04:49:39.398Z,1007.6
2018-06-17T04:50:41.403Z,1007.6
2018-06-17T04:51:43.600Z,1007.5
2018-06-17T04:52:45.644Z,1007.5
2018-06-17T04:53:47.889Z,1007.5
2018-06-17T04:54:49.880Z,1007.5
2018-06-17T04:55:51.669Z,1007.5
2018-06-17T04:56:53.473Z,1007.5
2018-06-17T04:57:55.472Z,1007.6
2018-06-17T04:58:57.376Z,1007.6
2018-06-17T04:59:59.060Z,1007.6
2018-06-17T05:01:01.412Z,1007.6
2018-06-17T05:02:03.192Z,1007.6
2018-06-17T05:03:04.990Z,1007.6
2018-06-17T05:04:07.247Z,1007.5
2018-06-17T05:05:09.534Z,1007.5
2018-06-17T05:06:11.628Z,1007.6
2018-06-17T05:07:13.368Z,1007.6
2018-06-17T05:08:15.378Z,1007.7
2018-06-17T05:09:17.760Z,1007.6
2018-06-17T05:10:19.524Z,1007.6
2018-06-17T05:11:21.341Z,1007.5
2018-06-17T05:12:23.527Z,1007.5
2018-06-17T05:13:25.491Z,1007.5
2018-06-17T05:14:27.515Z,1007.5
2018-06-17T05:15:29.704Z,1007.6
2018-06-17T05:16:31.662Z,1007.5
2018-06-17T05:17:34.267Z,1007.5
2018-06-17T05:18:36.315Z,1007.6
2018-06-17T05:19:38.497Z,1007.6
2018-06-17T05:20:40.224Z,1007.6
2018-06-17T05:21:41.963Z,1007.6
2018-06-17T05:22:44.228Z,1007.6
2018-06-17T05:23:45.941Z,1007.7
2018-06-17T05:24:48.187Z,1007.6
2018-06-17T05:25:49.993Z,1007.6
2018-06-17T05:26:52.162Z,1007.6
2018-06-17T05:27:53.980Z,1007.7
2018-06-17T05:28:55.969Z,1007.7
2018-06-17T05:29:57.720Z,1007.7
2018-06-17T05:30:59.494Z,1007.6
2018-06-17T05:32:01.266Z,1007.6
2018-06-17T05:33:02.978Z,1007.7
2018-06-17T05:34:04.843Z,1007.7
2018-06-17T05:35:06.742Z,1007.7
2018-06-17T05:36:08.472Z,1007.8
2018-06-17T05:37:10.214Z,1007.7
2018-06-17T05:38:11.986Z,1007.8
2018-06-17T05:39:14.044Z,1007.7
2018-06-17T05:40:15.895Z,1007.7
2018-06-17T05:41:17.861Z,1007.8
2018-06-17T05:42:19.837Z,1007.7
2018-06-17T05:43:21.793Z,1007.7
2018-06-17T05:44:23.851Z,1007.8
2018-06-17T05:45:25.720Z,1007.8
2018-06-17T05:46:27.808Z,1007.8
2018-06-17T05:47:29.804Z,1007.7
2018-06-17T05:48:31.830Z,1007.8
2018-06-17T05:49:33.889Z,1007.8
2018-06-17T05:50:35.648Z,1007.9
2018-06-17T05:51:37.870Z,1007.9
2018-06-17T05:52:39.875Z,1007.8
2018-06-17T05:53:42.058Z,1007.8
2018-06-17T05:54:44.188Z,1007.8
2018-06-17T05:55:46.019Z,1007.9
2018-06-17T05:56:47.690Z,1007.9
2018-06-17T05:57:49.521Z,1007.9
2018-06-17T05:58:51.282Z,1007.8
2018-06-17T05:59:53.165Z,1007.8
2018-06-17T06:00:54.940Z,1007.8
2018-06-17T06:01:56.779Z,1007.9
2018-06-17T06:02:58.552Z,1007.9
2018-06-17T06:04:00.986Z,1008.0
2018-06-17T06:05:02.904Z,1008.0
2018-06-17T06:06:04.683Z,1008.1
2018-06-17T06:07:06.434Z,1008.1
2018-06-17T06:08:08.205Z,1008.1
2018-06-17T06:09:10.165Z,1008.1
2018-06-17T06:10:11.978Z,1008.0
2018-06-17T06:11:13.983Z,1007.9
2018-06-17T06:12:15.719Z,1008.0
2018-06-17T06:13:17.816Z,1008.1
2018-06-17T06:14:19.614Z,1008.1
2018-06-17T06:15:21.475Z,1008.1
2018-06-17T06:16:23.212Z,1008.1
2018-06-17T06:17:25.147Z,1008.1
2018-06-17T06:18:26.891Z,1008.2
2018-06-17T06:19:28.681Z,1008.2
2018-06-17T06:20:30.566Z,1008.3
2018-06-17T06:21:32.328Z,1008.3
2018-06-17T06:22:34.169Z,1008.4
2018-06-17T06:23:35.970Z,1008.4
2018-06-17T06:24:37.725Z,1008.5
2018-06-17T06:25:39.606Z,1008.6
2018-06-17T06:26:41.361Z,1008.9
2018-06-17T06:27:43.193Z,1008.9
2018-06-17T06:28:44.949Z,1009.0
2018-06-17T06:29:46.707Z,1008.9
2018-06-17T06:30:48.556Z,1008.6
2018-06-17T06:31:50.312Z,1009.0
2018-06-17T06:32:52.273Z,1009.2
2018-06-17T06:33:54.098Z,1009.1
2018-06-17T06:34:55.853Z,1008.9
2018-06-17T06:35:57.608Z,1008.7
2018-06-17T06:36:59.396Z,1008.8
2018-06-17T06:38:01.247Z,1008.6
2018-06-17T06:39:02.917Z,1008.6
2018-06-17T06:40:05.256Z,1008.6
2018-06-17T06:41:07.051Z,1008.6
2018-06-17T06:42:08.971Z,1008.6
2018-06-17T06:43:10.727Z,1008.5
2018-06-17T06:44:12.479Z,1008.7
2018-06-17T06:45:14.321Z,1008.6
2018-06-17T06:46:16.211Z,1008.7
2018-06-17T06:47:17.877Z,1008.7
2018-06-17T06:48:19.596Z,1008.6
2018-06-17T06:49:21.401Z,1008.8
2018-06-17T06:50:23.175Z,1008.8
2018-06-17T06:51:25.235Z,1009.1
2018-06-17T06:52:27.007Z,1008.7
2018-06-17T06:53:28.761Z,1008.5
2018-06-17T06:54:30.451Z,1008.4
2018-06-17T06:55:32.247Z,1008.3
2018-06-17T06:56:33.998Z,1008.6
2018-06-17T06:57:35.800Z,1008.3
2018-06-17T06:58:37.585Z,1008.4
2018-06-17T06:59:39.380Z,1008.4
2018-06-17T07:00:41.109Z,1008.8
2018-06-17T07:01:42.924Z,1008.8
2018-06-17T07:02:44.856Z,1008.8
2018-06-17T07:03:46.603Z,1008.5
2018-06-17T07:04:48.422Z,1008.7
2018-06-17T07:05:50.086Z,1008.9
2018-06-17T07:06:51.812Z,1009.0
2018-06-17T07:07:53.613Z,1008.4
2018-06-17T07:08:55.309Z,1008.8
2018-06-17T07:09:56.907Z,1008.6
2018-06-17T07:10:59.407Z,1009.3
2018-06-17T07:12:01.175Z,1008.7
2018-06-17T07:13:02.892Z,1008.5
2018-06-17T07:14:04.650Z,1008.4
2018-06-17T07:15:06.369Z,1008.4
2018-06-17T07:16:08.111Z,1008.7
2018-06-17T07:17:09.991Z,1008.7
2018-06-17T07:18:11.830Z,1008.8
2018-06-17T07:19:13.691Z,1008.8
2018-06-17T07:20:15.540Z,1008.8
2018-06-17T07:21:17.270Z,1008.6
2018-06-17T07:22:19.094Z,1009.4
2018-06-17T07:23:20.889Z,1009.6
2018-06-17T07:24:22.644Z,1009.8
2018-06-17T07:25:24.539Z,1009.5
2018-06-17T07:26:26.306Z,1008.5
2018-06-17T07:27:28.117Z,1009.3
2018-06-17T07:28:29.888Z,1009.9
2018-06-17T07:29:31.764Z,1009.8
2018-06-17T07:30:33.556Z,1009.6
2018-06-17T07:31:35.344Z,1009.6
2018-06-17T07:32:37.166Z,1009.3
2018-06-17T07:33:38.940Z,1009.7
2018-06-17T07:34:40.665Z,1008.7
2018-06-17T07:35:42.475Z,1009.4
2018-06-17T07:36:44.214Z,1009.5
2018-06-17T07:37:45.950Z,1009.5
2018-06-17T07:38:47.752Z,1008.6
2018-06-17T07:39:49.653Z,1008.9
2018-06-17T07:40:51.430Z,1008.8
2018-06-17T07:41:53.153Z,1008.6
2018-06-17T07:42:54.923Z,1008.6
2018-06-17T07:43:56.721Z,1008.9
2018-06-17T07:44:58.504Z,1008.6
2018-06-17T07:46:00.257Z,1008.7
2018-06-17T07:47:01.993Z,1008.7
2018-06-17T07:48:03.731Z,1009.0
2018-06-17T07:49:05.470Z,1008.7
2018-06-17T07:50:07.533Z,1008.6
2018-06-17T07:51:09.295Z,1008.7
2018-06-17T07:52:11.151Z,1009.1
2018-06-17T07:53:13.064Z,1008.6
2018-06-17T07:54:14.782Z,1008.5
2018-06-17T07:55:16.541Z,1008.8
2018-06-17T07:56:18.310Z,1008.9
2018-06-17T07:57:20.248Z,1008.8
2018-06-17T07:58:22.075Z,1008.9
2018-06-17T07:59:23.900Z,1008.9
2018-06-17T08:00:25.674Z,1008.8
2018-06-17T08:01:27.495Z,1008.8
2018-06-17T08:02:29.268Z,1008.7
2018-06-17T08:03:31.194Z,1008.6
2018-06-17T08:04:33.022Z,1008.6
2018-06-17T08:05:34.743Z,1008.7
2018-06-17T08:06:36.524Z,1008.9
2018-06-17T08:07:38.295Z,1008.9
2018-06-17T08:08:40.110Z,1008.9
2018-06-17T08:09:41.810Z,1008.9
2018-06-17T08:10:43.535Z,1008.9
2018-06-17T08:11:45.522Z,1008.8
2018-06-17T08:12:47.402Z,1009.0
2018-06-17T08:13:49.166Z,1008.8
2018-06-17T08:14:50.997Z,1008.8
2018-06-17T08:15:52.770Z,1008.9
2018-06-17T08:16:54.539Z,1009.0
2018-06-17T08:17:56.362Z,1008.8
2018-06-17T08:18:58.153Z,1008.8
2018-06-17T08:19:59.722Z,1008.9
2018-06-17T08:21:01.495Z,1009.0
2018-06-17T08:22:03.178Z,1008.8
2018-06-17T08:23:04.835Z,1008.9
2018-06-17T08:24:06.648Z,1009.0
2018-06-17T08:25:08.446Z,1008.9
2018-06-17T08:26:10.074Z,1008.8
2018-06-17T08:27:11.858Z,1008.9
2018-06-17T08:28:13.724Z,1008.9
2018-06-17T08:29:15.461Z,1009.0
2018-06-17T08:30:17.331Z,1009.0
2018-06-17T08:31:19.109Z,1009.0
2018-06-17T08:32:20.997Z,1009.0
2018-06-17T08:33:22.731Z,1008.9
2018-06-17T08:34:24.404Z,1009.0
2018-06-17T08:35:26.142Z,1009.1
2018-06-17T08:36:27.986Z,1009.0
2018-06-17T08:37:29.650Z,1009.0
2018-06-17T08:38:31.384Z,1009.0
2018-06-17T08:39:33.045Z,1009.0
2018-06-17T08:40:35.236Z,1008.8
2018-06-17T08:41:36.942Z,1009.1
2018-06-17T08:42:38.623Z,1009.0
2018-06-17T08:43:40.347Z,1009.0
2018-06-17T08:44:42.036Z,1008.8
2018-06-17T08:45:43.810Z,1008.9
2018-06-17T08:46:45.649Z,1009.1
2018-06-17T08:47:47.369Z,1009.0
2018-06-17T08:48:49.112Z,1009.0
2018-06-17T08:49:50.843Z,1009.1
2018-06-17T08:50:52.634Z,1009.2
2018-06-17T08:51:54.383Z,1009.1
2018-06-17T08:52:56.188Z,1009.2
2018-06-17T08:53:57.954Z,1009.3
2018-06-17T08:54:59.639Z,1008.9
2018-06-17T08:56:01.487Z,1008.8
2018-06-17T08:57:03.286Z,1008.9
2018-06-17T08:58:05.093Z,1008.9
2018-06-17T08:59:07.084Z,1008.7
2018-06-17T09:00:08.884Z,1008.8
2018-06-17T09:01:10.645Z,1008.8
2018-06-17T09:02:12.388Z,1008.7
2018-06-17T09:03:14.113Z,1008.7
2018-06-17T09:04:15.878Z,1008.6
2018-06-17T09:05:17.592Z,1008.6
2018-06-17T09:06:19.379Z,1008.7
2018-06-17T09:07:21.145Z,1008.9
2018-06-17T09:08:23.104Z,1009.0
2018-06-17T09:09:24.821Z,1008.6
2018-06-17T09:10:26.544Z,1008.6
2018-06-17T09:11:28.267Z,1008.6
2018-06-17T09:12:30.039Z,1009.4
2018-06-17T09:13:31.991Z,1009.8
2018-06-17T09:14:33.759Z,1009.9
2018-06-17T09:15:35.436Z,1010.0
2018-06-17T09:16:37.162Z,1009.9
2018-06-17T09:17:39.115Z,1008.9
2018-06-17T09:18:40.859Z,1009.4
2018-06-17T09:19:42.712Z,1009.0
2018-06-17T09:20:44.434Z,1008.8
2018-06-17T09:21:46.462Z,1008.8
2018-06-17T09:22:48.457Z,1008.7
2018-06-17T09:23:50.233Z,1008.5
2018-06-17T09:24:51.968Z,1008.5
2018-06-17T09:25:53.794Z,1008.7
2018-06-17T09:26:55.437Z,1008.6
2018-06-17T09:27:57.487Z,1008.7
2018-06-17T09:28:59.242Z,1008.8
2018-06-17T09:30:00.987Z,1008.7
2018-06-17T09:31:03.122Z,1008.7
2018-06-17T09:32:04.913Z,1008.8
2018-06-17T09:33:06.961Z,1008.8
2018-06-17T09:34:08.620Z,1008.7
2018-06-17T09:35:10.389Z,1008.7
2018-06-17T09:36:12.364Z,1009.0
2018-06-17T09:37:14.475Z,1008.9
2018-06-17T09:38:16.625Z,1009.0
2018-06-17T09:39:18.455Z,1009.0
2018-06-17T09:40:20.453Z,1009.2
2018-06-17T09:41:22.163Z,1009.2
2018-06-17T09:42:23.952Z,1009.1
2018-06-17T09:43:25.658Z,1009.0
2018-06-17T09:44:27.452Z,1008.9
2018-06-17T09:45:29.177Z,1008.7
2018-06-17T09:46:30.922Z,1008.7
2018-06-17T09:47:32.706Z,1008.6
2018-06-17T09:48:34.573Z,1008.7
2018-06-17T09:49:36.333Z,1008.6
2018-06-17T09:50:38.194Z,1008.7
2018-06-17T09:51:40.069Z,1008.6
2018-06-17T09:52:41.731Z,1009.0
2018-06-17T09:53:43.585Z,1009.2
2018-06-17T09:54:45.490Z,1009.2
2018-06-17T09:55:47.212Z,1008.9
2018-06-17T09:56:48.936Z,1008.9
2018-06-17T09:57:50.690Z,1009.0
2018-06-17T09:58:52.566Z,1008.7
2018-06-17T09:59:54.355Z,1009.1
2018-06-17T10:00:56.050Z,1008.9
2018-06-17T10:01:57.805Z,1009.2
2018-06-17T10:02:59.521Z,1009.2
2018-06-17T10:04:01.543Z,1008.8
2018-06-17T10:05:03.559Z,1008.7
2018-06-17T10:06:05.442Z,1009.1
2018-06-17T10:07:07.202Z,1009.1
2018-06-17T10:08:08.930Z,1009.1
2018-06-17T10:09:10.886Z,1008.9
2018-06-17T10:10:12.965Z,1009.0
2018-06-17T10:11:14.822Z,1008.9
2018-06-17T10:12:16.557Z,1008.8
2018-06-17T10:13:18.225Z,1008.9
2018-06-17T10:14:19.985Z,1008.8
2018-06-17T10:15:21.821Z,1008.8
2018-06-17T10:16:23.691Z,1008.7
2018-06-17T10:17:25.390Z,1008.8
2018-06-17T10:18:27.239Z,1009.0
2018-06-17T10:19:28.985Z,1008.8
2018-06-17T10:20:30.691Z,1008.8
2018-06-17T10:21:32.453Z,1008.8
2018-06-17T10:22:34.281Z,1008.7
2018-06-17T10:23:35.958Z,1008.8
2018-06-17T10:24:37.916Z,1009.0
2018-06-17T10:25:39.860Z,1009.0
2018-06-17T10:26:41.611Z,1009.0
2018-06-17T10:27:43.380Z,1009.1
2018-06-17T10:28:45.307Z,1009.2
2018-06-17T10:29:47.074Z,1009.2
2018-06-17T10:30:48.933Z,1009.0
2018-06-17T10:31:50.714Z,1009.0
2018-06-17T10:32:52.432Z,1009.0
2018-06-17T10:33:54.181Z,1009.3
2018-06-17T10:34:55.856Z,1009.6
2018-06-17T10:35:57.605Z,1009.3
2018-06-17T10:36:59.503Z,1009.4
2018-06-17T10:38:01.204Z,1009.6
2018-06-17T10:39:02.919Z,1009.4
2018-06-17T10:40:04.663Z,1009.3
2018-06-17T10:41:06.410Z,1009.1
2018-06-17T10:42:08.330Z,1009.2
2018-06-17T10:43:09.995Z,1009.3
2018-06-17T10:44:11.876Z,1009.1
2018-06-17T10:45:13.702Z,1009.1
2018-06-17T10:46:15.494Z,1009.2
2018-06-17T10:47:17.424Z,1009.2
2018-06-17T10:48:19.260Z,1009.1
2018-06-17T10:49:21.177Z,1009.1
2018-06-17T10:50:22.930Z,1009.0
2018-06-17T10:51:24.637Z,1009.0
2018-06-17T10:52:26.355Z,1009.1
2018-06-17T10:53:28.219Z,1009.0
2018-06-17T10:54:30.139Z,1009.1
2018-06-17T10:55:31.817Z,1009.1
2018-06-17T10:56:33.671Z,1009.1
2018-06-17T10:57:35.405Z,1009.1
2018-06-17T10:58:37.148Z,1009.2
2018-06-17T10:59:38.978Z,1009.1
2018-06-17T11:00:40.789Z,1009.0
2018-06-17T11:01:42.469Z,1009.1
2018-06-17T11:02:44.227Z,1009.1
2018-06-17T11:03:46.028Z,1009.1
2018-06-17T11:04:47.786Z,1009.0
2018-06-17T11:05:49.583Z,1009.1
2018-06-17T11:06:51.597Z,1009.1
2018-06-17T11:07:53.628Z,1009.2
2018-06-17T11:08:55.313Z,1009.2
2018-06-17T11:09:57.063Z,1009.1
2018-06-17T11:10:58.783Z,1009.1
2018-06-17T11:12:00.562Z,1009.2
2018-06-17T11:13:02.313Z,1009.4
2018-06-17T11:14:04.280Z,1009.4
2018-06-17T11:15:05.993Z,1009.4
2018-06-17T11:16:07.808Z,1009.3
2018-06-17T11:17:09.870Z,1009.3
2018-06-17T11:18:11.867Z,1009.2
2018-06-17T11:19:13.560Z,1009.1
2018-06-17T11:20:15.644Z,1009.2
2018-06-17T11:21:17.446Z,1009.0
2018-06-17T11:22:19.412Z,1009.0
2018-06-17T11:23:21.134Z,1009.1
2018-06-17T11:24:22.968Z,1008.9
2018-06-17T11:25:24.762Z,1009.1
2018-06-17T11:26:26.430Z,1009.3
2018-06-17T11:27:28.156Z,1009.1
2018-06-17T11:28:29.963Z,1009.0
2018-06-17T11:29:31.765Z,1009.1
2018-06-17T11:30:33.523Z,1008.9
2018-06-17T11:31:35.341Z,1009.0
2018-06-17T11:32:37.201Z,1009.1
2018-06-17T11:33:38.943Z,1009.1
2018-06-17T11:34:41.162Z,1009.0
2018-06-17T11:35:42.860Z,1009.0
2018-06-17T11:36:44.817Z,1009.0
2018-06-17T11:37:46.524Z,1009.1
2018-06-17T11:38:48.355Z,1009.2
2018-06-17T11:39:50.224Z,1009.1
2018-06-17T11:40:52.382Z,1009.2
2018-06-17T11:41:54.663Z,1009.1
2018-06-17T11:42:56.212Z,1009.3
2018-06-17T11:43:58.139Z,1009.3
2018-06-17T11:44:59.840Z,1009.2
2018-06-17T11:46:01.630Z,1009.3
2018-06-17T11:47:03.324Z,1009.3
2018-06-17T11:48:05.185Z,1009.4
2018-06-17T11:49:07.151Z,1009.3
2018-06-17T11:50:08.922Z,1009.3
2018-06-17T11:51:10.649Z,1009.4
2018-06-17T11:52:12.644Z,1009.4
2018-06-17T11:53:14.660Z,1009.5
2018-06-17T11:54:16.607Z,1009.5
2018-06-17T11:55:18.478Z,1009.4
2018-06-17T11:56:20.402Z,1009.4
2018-06-17T11:57:22.153Z,1009.3
2018-06-17T11:58:23.927Z,1009.4
2018-06-17T11:59:25.669Z,1009.3
2018-06-17T12:00:27.338Z,1009.5
2018-06-17T12:01:29.053Z,1009.5
2018-06-17T12:02:31.299Z,1009.5
2018-06-17T12:03:33.011Z,1009.4
2018-06-17T12:04:34.797Z,1009.4
2018-06-17T12:05:36.520Z,1009.4
2018-06-17T12:06:38.313Z,1009.3
2018-06-17T12:07:40.460Z,1009.3
2018-06-17T12:08:42.182Z,1009.1
2018-06-17T12:09:43.874Z,1009.2
2018-06-17T12:10:45.545Z,1009.1
2018-06-17T12:11:47.419Z,1009.1
2018-06-17T12:12:49.388Z,1009.2
2018-06-17T12:13:51.484Z,1009.2
2018-06-17T12:14:53.321Z,1009.3
2018-06-17T12:15:55.088Z,1009.3
2018-06-17T12:16:56.806Z,1009.4
2018-06-17T12:17:58.531Z,1009.5
2018-06-17T12:19:00.371Z,1009.4
2018-06-17T12:20:02.052Z,1009.4
2018-06-17T12:21:04.273Z,1009.4
2018-06-17T12:22:06.216Z,1009.5
2018-06-17T12:23:08.283Z,1009.4
2018-06-17T12:24:10.564Z,1009.4
2018-06-17T12:25:12.254Z,1009.4
2018-06-17T12:26:13.994Z,1009.4
2018-06-17T12:27:15.875Z,1009.3
2018-06-17T12:28:17.942Z,1009.3
2018-06-17T12:29:19.654Z,1009.3
2018-06-17T12:30:21.316Z,1009.3
2018-06-17T12:31:23.346Z,1009.3
2018-06-17T12:32:25.582Z,1009.3
2018-06-17T12:33:27.432Z,1009.3
2018-06-17T12:34:29.086Z,1009.3
2018-06-17T12:35:30.870Z,1009.3
2018-06-17T12:36:32.526Z,1009.4
2018-06-17T12:37:34.584Z,1009.4
2018-06-17T12:38:36.603Z,1009.4
2018-06-17T12:39:38.987Z,1009.4
2018-06-17T12:40:41.069Z,1009.4
2018-06-17T12:41:42.767Z,1009.4
2018-06-17T12:42:44.701Z,1009.4
2018-06-17T12:43:48.510Z,1009.5
2018-06-17T12:44:50.308Z,1009.4
2018-06-17T12:45:52.742Z,1009.5
2018-06-17T12:46:54.479Z,1009.5
2018-06-17T12:47:56.096Z,1009.5
2018-06-17T12:48:58.665Z,1009.5
2018-06-17T12:50:00.405Z,1009.5
2018-06-17T12:51:02.129Z,1009.5
2018-06-17T12:52:03.992Z,1009.4